sensor_id;sensor_type;location;lat;lon;timestamp;temperature;humidity
3566;DHT22;1797;51.844;7.684;2023-02-21T00:01:28;8.50;99.90
3566;DHT22;1797;51.844;7.684;2023-02-21T00:04:12;8.50;99.90
3566;DHT22;1797;51.844;7.684;2023-02-21T00:06:56;8.50;99.90
3566;DHT22;1797;51.844;7.684;2023-02-21T00:09:41;8.50;99.90
3566;DHT22;1797;51.844;7.684;2023-02-21T00:12:25;8.50;99.90
3566;DHT22;1797;51.844;7.684;2023-02-21T00:15:10;8.50;99.90
3566;DHT22;1797;51.844;7.684;2023-02-21T00:17:55;8.50;99.90
3566;DHT22;1797;51.844;7.684;2023-02-21T00:20:39;8.50;99.90
3566;DHT22;1797;51.844;7.684;2023-02-21T00:23:23;8.50;99.90
3566;DHT22;1797;51.844;7.684;2023-02-21T00:26:07;8.50;99.90
3566;DHT22;1797;51.844;7.684;2023-02-21T00:28:51;8.50;99.90
3566;DHT22;1797;51.844;7.684;2023-02-21T00:31:35;8.50;99.90
3566;DHT22;1797;51.844;7.684;2023-02-21T00:34:19;8.50;99.90
3566;DHT22;1797;51.844;7.684;2023-02-21T00:37:03;8.50;99.90
3566;DHT22;1797;51.844;7.684;2023-02-21T00:39:47;8.50;99.90
3566;DHT22;1797;51.844;7.684;2023-02-21T00:42:31;8.50;99.90
3566;DHT22;1797;51.844;7.684;2023-02-21T00:45:16;8.50;99.90
3566;DHT22;1797;51.844;7.684;2023-02-21T00:47:59;8.50;99.90
3566;DHT22;1797;51.844;7.684;2023-02-21T00:50:44;8.50;99.90
3566;DHT22;1797;51.844;7.684;2023-02-21T00:53:28;8.50;99.90
3566;DHT22;1797;51.844;7.684;2023-02-21T00:56:12;8.40;99.90
3566;DHT22;1797;51.844;7.684;2023-02-21T00:58:56;8.40;99.90
3566;DHT22;1797;51.844;7.684;2023-02-21T01:01:40;8.40;99.90
3566;DHT22;1797;51.844;7.684;2023-02-21T01:04:24;8.40;99.90
3566;DHT22;1797;51.844;7.684;2023-02-21T01:07:08;8.40;99.90
3566;DHT22;1797;51.844;7.684;2023-02-21T01:09:53;8.40;99.90
3566;DHT22;1797;51.844;7.684;2023-02-21T01:12:37;8.40;99.90
3566;DHT22;1797;51.844;7.684;2023-02-21T01:15:21;8.40;99.90
3566;DHT22;1797;51.844;7.684;2023-02-21T01:18:05;8.40;99.90
3566;DHT22;1797;51.844;7.684;2023-02-21T01:20:49;8.40;99.90
3566;DHT22;1797;51.844;7.684;2023-02-21T01:23:33;8.40;99.90
3566;DHT22;1797;51.844;7.684;2023-02-21T01:26:17;8.40;99.90
3566;DHT22;1797;51.844;7.684;2023-02-21T01:29:02;8.40;99.90
3566;DHT22;1797;51.844;7.684;2023-02-21T01:31:48;8.40;99.90
3566;DHT22;1797;51.844;7.684;2023-02-21T01:34:32;8.40;99.90
3566;DHT22;1797;51.844;7.684;2023-02-21T01:37:16;8.40;99.90
3566;DHT22;1797;51.844;7.684;2023-02-21T01:40:01;8.40;99.90
3566;DHT22;1797;51.844;7.684;2023-02-21T01:42:46;8.40;99.90
3566;DHT22;1797;51.844;7.684;2023-02-21T01:45:42;8.40;99.90
3566;DHT22;1797;51.844;7.684;2023-02-21T01:48:26;8.40;99.90
3566;DHT22;1797;51.844;7.684;2023-02-21T01:51:14;8.30;99.90
3566;DHT22;1797;51.844;7.684;2023-02-21T01:54:00;8.30;99.90
3566;DHT22;1797;51.844;7.684;2023-02-21T01:56:45;8.30;99.90
3566;DHT22;1797;51.844;7.684;2023-02-21T01:59:30;8.40;99.90
3566;DHT22;1797;51.844;7.684;2023-02-21T02:02:30;8.30;99.90
3566;DHT22;1797;51.844;7.684;2023-02-21T02:05:17;8.30;99.90
3566;DHT22;1797;51.844;7.684;2023-02-21T02:08:01;8.40;99.90
3566;DHT22;1797;51.844;7.684;2023-02-21T02:10:45;8.40;99.90
3566;DHT22;1797;51.844;7.684;2023-02-21T02:14:00;8.40;99.90
3566;DHT22;1797;51.844;7.684;2023-02-21T02:16:39;8.40;99.90
3566;DHT22;1797;51.844;7.684;2023-02-21T02:22:04;8.30;99.90
3566;DHT22;1797;51.844;7.684;2023-02-21T02:28:20;8.30;99.90
3566;DHT22;1797;51.844;7.684;2023-02-21T02:31:10;8.30;99.90
3566;DHT22;1797;51.844;7.684;2023-02-21T02:36:29;8.30;99.90
3566;DHT22;1797;51.844;7.684;2023-02-21T02:39:22;8.30;99.90
3566;DHT22;1797;51.844;7.684;2023-02-21T02:44:52;8.30;99.90
3566;DHT22;1797;51.844;7.684;2023-02-21T02:47:30;8.30;99.90
3566;DHT22;1797;51.844;7.684;2023-02-21T02:49:58;8.30;99.90
3566;DHT22;1797;51.844;7.684;2023-02-21T02:52:24;8.30;99.90
3566;DHT22;1797;51.844;7.684;2023-02-21T02:54:58;8.30;99.90
3566;DHT22;1797;51.844;7.684;2023-02-21T02:57:23;8.30;99.90
3566;DHT22;1797;51.844;7.684;2023-02-21T02:59:49;8.30;99.90
3566;DHT22;1797;51.844;7.684;2023-02-21T03:02:36;8.30;99.90
3566;DHT22;1797;51.844;7.684;2023-02-21T03:10:45;8.30;99.90
3566;DHT22;1797;51.844;7.684;2023-02-21T03:15:48;8.40;99.90
3566;DHT22;1797;51.844;7.684;2023-02-21T03:18:29;8.30;99.90
3566;DHT22;1797;51.844;7.684;2023-02-21T03:21:00;8.30;99.90
3566;DHT22;1797;51.844;7.684;2023-02-21T03:23:28;8.30;99.90
3566;DHT22;1797;51.844;7.684;2023-02-21T03:25:58;8.30;99.90
3566;DHT22;1797;51.844;7.684;2023-02-21T03:28:25;8.30;99.90
3566;DHT22;1797;51.844;7.684;2023-02-21T03:30:53;8.30;99.90
3566;DHT22;1797;51.844;7.684;2023-02-21T03:33:20;8.30;99.90
3566;DHT22;1797;51.844;7.684;2023-02-21T03:35:46;8.30;99.90
3566;DHT22;1797;51.844;7.684;2023-02-21T03:38:12;8.30;99.90
3566;DHT22;1797;51.844;7.684;2023-02-21T03:40:38;8.30;99.90
3566;DHT22;1797;51.844;7.684;2023-02-21T03:43:04;8.30;99.90
3566;DHT22;1797;51.844;7.684;2023-02-21T03:45:34;8.30;99.90
3566;DHT22;1797;51.844;7.684;2023-02-21T03:48:00;8.30;99.90
3566;DHT22;1797;51.844;7.684;2023-02-21T03:50:26;8.20;99.90
3566;DHT22;1797;51.844;7.684;2023-02-21T03:52:51;8.20;99.90
3566;DHT22;1797;51.844;7.684;2023-02-21T03:55:18;8.20;99.90
3566;DHT22;1797;51.844;7.684;2023-02-21T03:57:43;8.20;99.90
3566;DHT22;1797;51.844;7.684;2023-02-21T04:00:10;8.20;99.90
3566;DHT22;1797;51.844;7.684;2023-02-21T04:02:36;8.20;99.90
3566;DHT22;1797;51.844;7.684;2023-02-21T04:05:02;8.20;99.90
3566;DHT22;1797;51.844;7.684;2023-02-21T04:07:27;8.20;99.90
3566;DHT22;1797;51.844;7.684;2023-02-21T04:09:53;8.30;99.90
3566;DHT22;1797;51.844;7.684;2023-02-21T04:12:19;8.20;99.90
3566;DHT22;1797;51.844;7.684;2023-02-21T04:14:44;8.30;99.90
3566;DHT22;1797;51.844;7.684;2023-02-21T04:17:10;8.20;99.90
3566;DHT22;1797;51.844;7.684;2023-02-21T04:19:36;8.20;99.90
3566;DHT22;1797;51.844;7.684;2023-02-21T04:22:01;8.20;99.90
3566;DHT22;1797;51.844;7.684;2023-02-21T04:24:27;8.20;99.90
3566;DHT22;1797;51.844;7.684;2023-02-21T04:26:53;8.30;99.90
3566;DHT22;1797;51.844;7.684;2023-02-21T04:29:19;8.30;99.90
3566;DHT22;1797;51.844;7.684;2023-02-21T04:31:44;8.20;99.90
3566;DHT22;1797;51.844;7.684;2023-02-21T04:34:10;8.20;99.90
3566;DHT22;1797;51.844;7.684;2023-02-21T04:36:36;8.20;99.90
3566;DHT22;1797;51.844;7.684;2023-02-21T04:39:03;8.20;99.90
3566;DHT22;1797;51.844;7.684;2023-02-21T04:41:29;8.20;99.90
3566;DHT22;1797;51.844;7.684;2023-02-21T04:43:54;8.20;99.90
3566;DHT22;1797;51.844;7.684;2023-02-21T04:46:20;8.20;99.90
3566;DHT22;1797;51.844;7.684;2023-02-21T04:48:48;8.10;99.90
3566;DHT22;1797;51.844;7.684;2023-02-21T04:51:16;8.10;99.90
3566;DHT22;1797;51.844;7.684;2023-02-21T04:53:43;8.10;99.90
3566;DHT22;1797;51.844;7.684;2023-02-21T04:56:09;8.10;99.90
3566;DHT22;1797;51.844;7.684;2023-02-21T04:58:35;8.10;99.90
3566;DHT22;1797;51.844;7.684;2023-02-21T05:01:01;8.10;99.90
3566;DHT22;1797;51.844;7.684;2023-02-21T05:03:26;8.10;99.90
3566;DHT22;1797;51.844;7.684;2023-02-21T05:05:52;8.10;99.90
3566;DHT22;1797;51.844;7.684;2023-02-21T05:08:17;8.10;99.90
3566;DHT22;1797;51.844;7.684;2023-02-21T05:10:43;8.10;99.90
3566;DHT22;1797;51.844;7.684;2023-02-21T05:13:08;8.10;99.90
3566;DHT22;1797;51.844;7.684;2023-02-21T05:15:34;8.10;99.90
3566;DHT22;1797;51.844;7.684;2023-02-21T05:18:00;8.00;99.90
3566;DHT22;1797;51.844;7.684;2023-02-21T05:20:25;8.00;99.90
3566;DHT22;1797;51.844;7.684;2023-02-21T05:22:51;8.00;99.90
3566;DHT22;1797;51.844;7.684;2023-02-21T05:25:22;8.00;99.90
3566;DHT22;1797;51.844;7.684;2023-02-21T05:27:49;8.00;99.90
3566;DHT22;1797;51.844;7.684;2023-02-21T05:30:17;8.10;99.90
3566;DHT22;1797;51.844;7.684;2023-02-21T05:32:42;8.00;99.90
3566;DHT22;1797;51.844;7.684;2023-02-21T05:35:09;8.00;99.90
3566;DHT22;1797;51.844;7.684;2023-02-21T05:37:35;8.00;99.90
3566;DHT22;1797;51.844;7.684;2023-02-21T05:40:01;8.00;99.90
3566;DHT22;1797;51.844;7.684;2023-02-21T05:42:26;7.90;99.90
3566;DHT22;1797;51.844;7.684;2023-02-21T05:44:52;8.00;99.90
3566;DHT22;1797;51.844;7.684;2023-02-21T05:47:18;8.00;99.90
3566;DHT22;1797;51.844;7.684;2023-02-21T05:49:43;8.00;99.90
3566;DHT22;1797;51.844;7.684;2023-02-21T05:52:15;8.00;99.90
3566;DHT22;1797;51.844;7.684;2023-02-21T05:54:41;8.00;99.90
3566;DHT22;1797;51.844;7.684;2023-02-21T05:57:07;7.90;99.90
3566;DHT22;1797;51.844;7.684;2023-02-21T05:59:32;7.90;99.90
3566;DHT22;1797;51.844;7.684;2023-02-21T06:01:58;7.90;99.90
3566;DHT22;1797;51.844;7.684;2023-02-21T06:04:24;7.90;99.90
3566;DHT22;1797;51.844;7.684;2023-02-21T06:06:50;8.00;99.90
3566;DHT22;1797;51.844;7.684;2023-02-21T06:09:16;7.90;99.90
3566;DHT22;1797;51.844;7.684;2023-02-21T06:11:43;8.00;99.90
3566;DHT22;1797;51.844;7.684;2023-02-21T06:14:16;8.00;99.90
3566;DHT22;1797;51.844;7.684;2023-02-21T06:16:41;7.90;99.90
3566;DHT22;1797;51.844;7.684;2023-02-21T06:19:08;7.90;99.90
3566;DHT22;1797;51.844;7.684;2023-02-21T06:21:35;7.90;99.90
3566;DHT22;1797;51.844;7.684;2023-02-21T06:24:01;7.90;99.90
3566;DHT22;1797;51.844;7.684;2023-02-21T06:26:27;7.90;99.90
3566;DHT22;1797;51.844;7.684;2023-02-21T06:28:53;7.90;99.90
3566;DHT22;1797;51.844;7.684;2023-02-21T06:31:20;7.90;99.90
3566;DHT22;1797;51.844;7.684;2023-02-21T06:33:47;7.90;99.90
3566;DHT22;1797;51.844;7.684;2023-02-21T06:36:16;7.90;99.90
3566;DHT22;1797;51.844;7.684;2023-02-21T06:38:47;7.80;99.90
3566;DHT22;1797;51.844;7.684;2023-02-21T06:41:16;7.90;99.90
3566;DHT22;1797;51.844;7.684;2023-02-21T06:43:42;7.90;99.90
3566;DHT22;1797;51.844;7.684;2023-02-21T06:46:08;7.80;99.90
3566;DHT22;1797;51.844;7.684;2023-02-21T06:48:33;7.80;99.90
3566;DHT22;1797;51.844;7.684;2023-02-21T06:50:59;7.90;99.90
3566;DHT22;1797;51.844;7.684;2023-02-21T06:53:25;7.90;99.90
3566;DHT22;1797;51.844;7.684;2023-02-21T06:55:51;7.80;99.90
3566;DHT22;1797;51.844;7.684;2023-02-21T06:58:16;7.80;99.90
3566;DHT22;1797;51.844;7.684;2023-02-21T07:00:42;7.80;99.90
3566;DHT22;1797;51.844;7.684;2023-02-21T07:03:07;7.80;99.90
3566;DHT22;1797;51.844;7.684;2023-02-21T07:05:33;7.90;99.90
3566;DHT22;1797;51.844;7.684;2023-02-21T07:08:01;7.90;99.90
3566;DHT22;1797;51.844;7.684;2023-02-21T07:10:27;7.80;99.90
3566;DHT22;1797;51.844;7.684;2023-02-21T07:12:53;7.80;99.90
3566;DHT22;1797;51.844;7.684;2023-02-21T07:15:19;7.90;99.90
3566;DHT22;1797;51.844;7.684;2023-02-21T07:17:44;7.80;99.90
3566;DHT22;1797;51.844;7.684;2023-02-21T07:20:10;7.90;99.90
3566;DHT22;1797;51.844;7.684;2023-02-21T07:22:36;7.90;99.90
3566;DHT22;1797;51.844;7.684;2023-02-21T07:25:02;7.90;99.90
3566;DHT22;1797;51.844;7.684;2023-02-21T07:27:27;7.90;99.90
3566;DHT22;1797;51.844;7.684;2023-02-21T07:29:53;7.90;99.90
3566;DHT22;1797;51.844;7.684;2023-02-21T07:32:18;7.80;99.90
3566;DHT22;1797;51.844;7.684;2023-02-21T07:34:44;7.90;99.90
3566;DHT22;1797;51.844;7.684;2023-02-21T07:37:10;7.90;99.90
3566;DHT22;1797;51.844;7.684;2023-02-21T07:39:36;7.90;99.90
3566;DHT22;1797;51.844;7.684;2023-02-21T07:42:02;7.80;99.90
3566;DHT22;1797;51.844;7.684;2023-02-21T07:44:29;7.80;99.90
3566;DHT22;1797;51.844;7.684;2023-02-21T07:46:56;7.90;99.90
3566;DHT22;1797;51.844;7.684;2023-02-21T07:49:22;7.80;99.90
3566;DHT22;1797;51.844;7.684;2023-02-21T07:51:48;7.90;99.90
3566;DHT22;1797;51.844;7.684;2023-02-21T07:54:15;7.80;99.90
3566;DHT22;1797;51.844;7.684;2023-02-21T07:56:48;7.90;99.90
3566;DHT22;1797;51.844;7.684;2023-02-21T07:59:14;7.80;99.90
3566;DHT22;1797;51.844;7.684;2023-02-21T08:01:40;7.80;99.90
3566;DHT22;1797;51.844;7.684;2023-02-21T08:04:06;7.80;99.90
3566;DHT22;1797;51.844;7.684;2023-02-21T08:06:35;7.80;99.90
3566;DHT22;1797;51.844;7.684;2023-02-21T08:09:01;7.80;99.90
3566;DHT22;1797;51.844;7.684;2023-02-21T08:11:27;7.90;99.90
3566;DHT22;1797;51.844;7.684;2023-02-21T08:13:52;7.90;99.90
3566;DHT22;1797;51.844;7.684;2023-02-21T08:16:18;7.90;99.90
3566;DHT22;1797;51.844;7.684;2023-02-21T08:18:46;7.90;99.90
3566;DHT22;1797;51.844;7.684;2023-02-21T08:21:12;7.90;99.90
3566;DHT22;1797;51.844;7.684;2023-02-21T08:23:38;7.90;99.90
3566;DHT22;1797;51.844;7.684;2023-02-21T08:26:04;7.90;99.90
3566;DHT22;1797;51.844;7.684;2023-02-21T08:28:29;7.90;99.90
3566;DHT22;1797;51.844;7.684;2023-02-21T08:30:55;7.90;99.90
3566;DHT22;1797;51.844;7.684;2023-02-21T08:33:21;7.90;99.90
3566;DHT22;1797;51.844;7.684;2023-02-21T08:35:46;7.90;99.90
3566;DHT22;1797;51.844;7.684;2023-02-21T08:38:12;8.00;99.90
3566;DHT22;1797;51.844;7.684;2023-02-21T08:40:38;8.00;99.90
3566;DHT22;1797;51.844;7.684;2023-02-21T08:43:04;7.90;99.90
3566;DHT22;1797;51.844;7.684;2023-02-21T08:45:30;7.90;99.90
3566;DHT22;1797;51.844;7.684;2023-02-21T08:47:57;7.90;99.90
3566;DHT22;1797;51.844;7.684;2023-02-21T08:50:25;8.00;99.90
3566;DHT22;1797;51.844;7.684;2023-02-21T08:52:52;7.90;99.90
3566;DHT22;1797;51.844;7.684;2023-02-21T08:55:18;8.00;99.90
3566;DHT22;1797;51.844;7.684;2023-02-21T08:57:44;7.90;99.90
3566;DHT22;1797;51.844;7.684;2023-02-21T09:00:13;8.00;99.90
3566;DHT22;1797;51.844;7.684;2023-02-21T09:02:39;8.00;99.90
3566;DHT22;1797;51.844;7.684;2023-02-21T09:05:14;8.00;99.90
3566;DHT22;1797;51.844;7.684;2023-02-21T09:07:40;8.00;99.90
3566;DHT22;1797;51.844;7.684;2023-02-21T09:10:07;8.00;99.90
3566;DHT22;1797;51.844;7.684;2023-02-21T09:12:35;8.00;99.90
3566;DHT22;1797;51.844;7.684;2023-02-21T09:15:01;8.00;99.90
3566;DHT22;1797;51.844;7.684;2023-02-21T09:17:27;8.10;99.90
3566;DHT22;1797;51.844;7.684;2023-02-21T09:19:52;8.10;99.90
3566;DHT22;1797;51.844;7.684;2023-02-21T09:22:18;8.10;99.90
3566;DHT22;1797;51.844;7.684;2023-02-21T09:24:43;8.10;99.90
3566;DHT22;1797;51.844;7.684;2023-02-21T09:27:09;8.10;99.90
3566;DHT22;1797;51.844;7.684;2023-02-21T09:29:35;8.10;99.90
3566;DHT22;1797;51.844;7.684;2023-02-21T09:32:02;8.10;99.90
3566;DHT22;1797;51.844;7.684;2023-02-21T09:34:28;8.10;99.90
3566;DHT22;1797;51.844;7.684;2023-02-21T09:36:54;8.20;99.90
3566;DHT22;1797;51.844;7.684;2023-02-21T09:39:21;8.20;99.90
3566;DHT22;1797;51.844;7.684;2023-02-21T09:41:48;8.20;99.90
3566;DHT22;1797;51.844;7.684;2023-02-21T09:44:22;8.20;99.90
3566;DHT22;1797;51.844;7.684;2023-02-21T09:46:51;8.20;99.90
3566;DHT22;1797;51.844;7.684;2023-02-21T09:51:48;8.20;99.90
3566;DHT22;1797;51.844;7.684;2023-02-21T09:56:47;8.20;99.90
3566;DHT22;1797;51.844;7.684;2023-02-21T09:59:13;8.30;99.90
3566;DHT22;1797;51.844;7.684;2023-02-21T10:10:31;8.30;99.90
3566;DHT22;1797;51.844;7.684;2023-02-21T10:18:44;8.40;99.90
3566;DHT22;1797;51.844;7.684;2023-02-21T10:21:21;8.40;99.90
3566;DHT22;1797;51.844;7.684;2023-02-21T10:23:50;8.40;99.90
3566;DHT22;1797;51.844;7.684;2023-02-21T10:26:44;8.50;99.90
3566;DHT22;1797;51.844;7.684;2023-02-21T10:29:24;8.50;99.90
3566;DHT22;1797;51.844;7.684;2023-02-21T10:31:57;8.60;99.90
3566;DHT22;1797;51.844;7.684;2023-02-21T10:34:29;8.60;99.90
3566;DHT22;1797;51.844;7.684;2023-02-21T10:36:59;8.60;99.90
3566;DHT22;1797;51.844;7.684;2023-02-21T10:39:41;8.60;99.90
3566;DHT22;1797;51.844;7.684;2023-02-21T10:42:19;8.60;99.90
3566;DHT22;1797;51.844;7.684;2023-02-21T10:44:52;8.60;99.90
3566;DHT22;1797;51.844;7.684;2023-02-21T10:47:22;8.50;99.90
3566;DHT22;1797;51.844;7.684;2023-02-21T10:53:04;8.60;99.90
3566;DHT22;1797;51.844;7.684;2023-02-21T10:55:30;8.60;99.90
3566;DHT22;1797;51.844;7.684;2023-02-21T10:57:57;8.60;99.90
3566;DHT22;1797;51.844;7.684;2023-02-21T11:00:43;8.70;99.90
3566;DHT22;1797;51.844;7.684;2023-02-21T11:05:48;8.60;99.90
3566;DHT22;1797;51.844;7.684;2023-02-21T11:08:14;8.70;99.90
3566;DHT22;1797;51.844;7.684;2023-02-21T11:10:43;8.70;99.90
3566;DHT22;1797;51.844;7.684;2023-02-21T11:13:19;8.70;99.90
3566;DHT22;1797;51.844;7.684;2023-02-21T11:15:46;8.60;99.90
3566;DHT22;1797;51.844;7.684;2023-02-21T11:18:21;8.50;99.90
3566;DHT22;1797;51.844;7.684;2023-02-21T11:20:47;8.50;99.90
3566;DHT22;1797;51.844;7.684;2023-02-21T11:25:47;8.60;99.90
3566;DHT22;1797;51.844;7.684;2023-02-21T11:31:03;8.70;99.90
3566;DHT22;1797;51.844;7.684;2023-02-21T11:33:29;8.60;99.90
3566;DHT22;1797;51.844;7.684;2023-02-21T11:36:14;8.60;99.90
3566;DHT22;1797;51.844;7.684;2023-02-21T11:38:44;8.60;99.90
3566;DHT22;1797;51.844;7.684;2023-02-21T11:41:53;8.70;99.90
3566;DHT22;1797;51.844;7.684;2023-02-21T11:47:02;8.50;99.90
3566;DHT22;1797;51.844;7.684;2023-02-21T11:52:25;8.60;99.90
3566;DHT22;1797;51.844;7.684;2023-02-21T11:54:55;8.60;99.90
3566;DHT22;1797;51.844;7.684;2023-02-21T12:00:54;8.60;99.90
3566;DHT22;1797;51.844;7.684;2023-02-21T12:06:16;8.50;99.90
3566;DHT22;1797;51.844;7.684;2023-02-21T12:14:15;8.50;99.90
3566;DHT22;1797;51.844;7.684;2023-02-21T12:33:47;8.90;99.90
3566;DHT22;1797;51.844;7.684;2023-02-21T12:38:52;8.90;99.90
3566;DHT22;1797;51.844;7.684;2023-02-21T12:50:33;9.00;99.90
3566;DHT22;1797;51.844;7.684;2023-02-21T12:55:33;9.00;99.90
3566;DHT22;1797;51.844;7.684;2023-02-21T12:58:11;9.10;99.90
3566;DHT22;1797;51.844;7.684;2023-02-21T13:03:59;9.00;99.90
3566;DHT22;1797;51.844;7.684;2023-02-21T13:06:43;9.00;99.90
3566;DHT22;1797;51.844;7.684;2023-02-21T13:09:19;9.00;99.90
3566;DHT22;1797;51.844;7.684;2023-02-21T13:12:11;9.00;99.90
3566;DHT22;1797;51.844;7.684;2023-02-21T13:14:44;9.00;99.90
3566;DHT22;1797;51.844;7.684;2023-02-21T13:17:14;9.00;99.90
3566;DHT22;1797;51.844;7.684;2023-02-21T13:19:47;9.00;99.90
3566;DHT22;1797;51.844;7.684;2023-02-21T13:28:17;9.00;99.90
3566;DHT22;1797;51.844;7.684;2023-02-21T13:30:51;9.00;99.90
3566;DHT22;1797;51.844;7.684;2023-02-21T13:33:42;8.90;99.90
3566;DHT22;1797;51.844;7.684;2023-02-21T13:39:12;8.90;99.90
3566;DHT22;1797;51.844;7.684;2023-02-21T13:41:41;8.80;99.90
3566;DHT22;1797;51.844;7.684;2023-02-21T13:44:11;8.70;99.90
3566;DHT22;1797;51.844;7.684;2023-02-21T13:57:40;8.90;99.90
3566;DHT22;1797;51.844;7.684;2023-02-21T14:13:36;9.00;99.90
3566;DHT22;1797;51.844;7.684;2023-02-21T14:21:07;8.90;99.90
3566;DHT22;1797;51.844;7.684;2023-02-21T14:23:41;8.90;99.90
3566;DHT22;1797;51.844;7.684;2023-02-21T14:29:38;8.90;99.90
3566;DHT22;1797;51.844;7.684;2023-02-21T14:37:34;8.90;99.90
3566;DHT22;1797;51.844;7.684;2023-02-21T15:02:59;9.00;99.90
3566;DHT22;1797;51.844;7.684;2023-02-21T15:05:35;9.10;99.90
3566;DHT22;1797;51.844;7.684;2023-02-21T15:08:17;9.10;99.90
3566;DHT22;1797;51.844;7.684;2023-02-21T15:10:47;9.20;99.90
3566;DHT22;1797;51.844;7.684;2023-02-21T15:16:03;9.00;99.90
3566;DHT22;1797;51.844;7.684;2023-02-21T15:18:34;9.10;99.90
3566;DHT22;1797;51.844;7.684;2023-02-21T15:23:38;9.10;99.90
3566;DHT22;1797;51.844;7.684;2023-02-21T15:26:28;9.20;99.90
3566;DHT22;1797;51.844;7.684;2023-02-21T15:29:13;9.20;99.90
3566;DHT22;1797;51.844;7.684;2023-02-21T15:31:43;9.20;99.90
3566;DHT22;1797;51.844;7.684;2023-02-21T15:34:22;9.10;99.90
3566;DHT22;1797;51.844;7.684;2023-02-21T15:36:57;9.10;99.90
3566;DHT22;1797;51.844;7.684;2023-02-21T15:39:29;9.10;99.90
3566;DHT22;1797;51.844;7.684;2023-02-21T15:41:57;9.10;99.90
3566;DHT22;1797;51.844;7.684;2023-02-21T15:44:30;9.20;99.90
3566;DHT22;1797;51.844;7.684;2023-02-21T15:47:07;9.10;99.90
3566;DHT22;1797;51.844;7.684;2023-02-21T15:49:34;9.10;99.90
3566;DHT22;1797;51.844;7.684;2023-02-21T15:52:02;9.10;99.90
3566;DHT22;1797;51.844;7.684;2023-02-21T15:54:34;9.10;99.90
3566;DHT22;1797;51.844;7.684;2023-02-21T15:59:36;9.10;99.90
3566;DHT22;1797;51.844;7.684;2023-02-21T16:02:21;9.10;99.90
3566;DHT22;1797;51.844;7.684;2023-02-21T16:04:50;9.10;99.90
3566;DHT22;1797;51.844;7.684;2023-02-21T16:07:33;9.10;99.90
3566;DHT22;1797;51.844;7.684;2023-02-21T16:10:04;9.10;99.90
3566;DHT22;1797;51.844;7.684;2023-02-21T16:12:34;9.10;99.90
3566;DHT22;1797;51.844;7.684;2023-02-21T16:15:46;9.10;99.90
3566;DHT22;1797;51.844;7.684;2023-02-21T16:17:55;9.10;99.90
3566;DHT22;1797;51.844;7.684;2023-02-21T16:20:42;9.10;99.90
3566;DHT22;1797;51.844;7.684;2023-02-21T16:26:00;9.10;99.90
3566;DHT22;1797;51.844;7.684;2023-02-21T16:28:27;9.10;99.90
3566;DHT22;1797;51.844;7.684;2023-02-21T16:30:55;9.10;99.90
3566;DHT22;1797;51.844;7.684;2023-02-21T16:33:23;9.10;99.90
3566;DHT22;1797;51.844;7.684;2023-02-21T16:35:49;9.00;99.90
3566;DHT22;1797;51.844;7.684;2023-02-21T16:38:18;9.10;99.90
3566;DHT22;1797;51.844;7.684;2023-02-21T16:40:44;9.00;99.90
3566;DHT22;1797;51.844;7.684;2023-02-21T16:43:16;9.00;99.90
3566;DHT22;1797;51.844;7.684;2023-02-21T16:45:42;9.00;99.90
3566;DHT22;1797;51.844;7.684;2023-02-21T16:48:16;9.00;99.90
3566;DHT22;1797;51.844;7.684;2023-02-21T16:50:46;9.00;99.90
3566;DHT22;1797;51.844;7.684;2023-02-21T16:53:12;9.00;99.90
3566;DHT22;1797;51.844;7.684;2023-02-21T16:55:38;9.00;99.90
3566;DHT22;1797;51.844;7.684;2023-02-21T16:58:07;9.10;99.90
3566;DHT22;1797;51.844;7.684;2023-02-21T17:00:36;9.10;99.90
3566;DHT22;1797;51.844;7.684;2023-02-21T17:03:02;9.10;99.90
3566;DHT22;1797;51.844;7.684;2023-02-21T17:05:27;9.10;99.90
3566;DHT22;1797;51.844;7.684;2023-02-21T17:07:54;9.20;99.90
3566;DHT22;1797;51.844;7.684;2023-02-21T17:10:20;9.20;99.90
3566;DHT22;1797;51.844;7.684;2023-02-21T17:12:46;9.20;99.90
3566;DHT22;1797;51.844;7.684;2023-02-21T17:15:12;9.10;99.90
3566;DHT22;1797;51.844;7.684;2023-02-21T17:17:39;9.10;99.90
3566;DHT22;1797;51.844;7.684;2023-02-21T17:20:13;9.10;99.90
3566;DHT22;1797;51.844;7.684;2023-02-21T17:22:39;9.10;99.90
3566;DHT22;1797;51.844;7.684;2023-02-21T17:25:05;9.10;99.90
3566;DHT22;1797;51.844;7.684;2023-02-21T17:27:31;9.10;99.90
3566;DHT22;1797;51.844;7.684;2023-02-21T17:29:56;9.20;99.90
3566;DHT22;1797;51.844;7.684;2023-02-21T17:32:22;9.20;99.90
3566;DHT22;1797;51.844;7.684;2023-02-21T17:34:47;9.20;99.90
3566;DHT22;1797;51.844;7.684;2023-02-21T17:37:13;9.20;99.90
3566;DHT22;1797;51.844;7.684;2023-02-21T17:39:39;9.20;99.90
3566;DHT22;1797;51.844;7.684;2023-02-21T17:42:04;9.20;99.90
3566;DHT22;1797;51.844;7.684;2023-02-21T17:44:30;9.20;99.90
3566;DHT22;1797;51.844;7.684;2023-02-21T17:46:57;9.20;99.90
3566;DHT22;1797;51.844;7.684;2023-02-21T17:49:26;9.20;99.90
3566;DHT22;1797;51.844;7.684;2023-02-21T17:51:53;9.20;99.90
3566;DHT22;1797;51.844;7.684;2023-02-21T17:54:21;9.20;99.90
3566;DHT22;1797;51.844;7.684;2023-02-21T17:56:47;9.20;99.90
3566;DHT22;1797;51.844;7.684;2023-02-21T17:59:14;9.20;99.90
3566;DHT22;1797;51.844;7.684;2023-02-21T18:01:39;9.20;99.90
3566;DHT22;1797;51.844;7.684;2023-02-21T18:04:08;9.20;99.90
3566;DHT22;1797;51.844;7.684;2023-02-21T18:06:34;9.20;99.90
3566;DHT22;1797;51.844;7.684;2023-02-21T18:09:00;9.20;99.90
3566;DHT22;1797;51.844;7.684;2023-02-21T18:11:27;9.20;99.90
3566;DHT22;1797;51.844;7.684;2023-02-21T18:13:55;9.20;99.90
3566;DHT22;1797;51.844;7.684;2023-02-21T18:16:20;9.20;99.90
3566;DHT22;1797;51.844;7.684;2023-02-21T18:18:46;9.20;99.90
3566;DHT22;1797;51.844;7.684;2023-02-21T18:21:12;9.20;99.90
3566;DHT22;1797;51.844;7.684;2023-02-21T18:23:42;9.10;99.90
3566;DHT22;1797;51.844;7.684;2023-02-21T18:26:08;9.10;99.90
3566;DHT22;1797;51.844;7.684;2023-02-21T18:28:33;9.10;99.90
3566;DHT22;1797;51.844;7.684;2023-02-21T18:30:59;9.10;99.90
3566;DHT22;1797;51.844;7.684;2023-02-21T18:33:25;9.10;99.90
3566;DHT22;1797;51.844;7.684;2023-02-21T18:35:52;9.10;99.90
3566;DHT22;1797;51.844;7.684;2023-02-21T18:38:18;9.10;99.90
3566;DHT22;1797;51.844;7.684;2023-02-21T18:40:44;9.10;99.90
3566;DHT22;1797;51.844;7.684;2023-02-21T18:43:21;9.10;99.90
3566;DHT22;1797;51.844;7.684;2023-02-21T18:45:49;9.10;99.90
3566;DHT22;1797;51.844;7.684;2023-02-21T18:48:16;9.10;99.90
3566;DHT22;1797;51.844;7.684;2023-02-21T18:50:42;9.10;99.90
3566;DHT22;1797;51.844;7.684;2023-02-21T18:53:08;9.10;99.90
3566;DHT22;1797;51.844;7.684;2023-02-21T18:55:34;9.10;99.90
3566;DHT22;1797;51.844;7.684;2023-02-21T18:58:00;9.10;99.90
3566;DHT22;1797;51.844;7.684;2023-02-21T19:00:27;9.10;99.90
3566;DHT22;1797;51.844;7.684;2023-02-21T19:02:53;9.10;99.90
3566;DHT22;1797;51.844;7.684;2023-02-21T19:05:20;9.10;99.90
3566;DHT22;1797;51.844;7.684;2023-02-21T19:07:46;9.10;99.90
3566;DHT22;1797;51.844;7.684;2023-02-21T19:10:14;9.10;99.90
3566;DHT22;1797;51.844;7.684;2023-02-21T19:12:41;9.10;99.90
3566;DHT22;1797;51.844;7.684;2023-02-21T19:15:07;9.10;99.90
3566;DHT22;1797;51.844;7.684;2023-02-21T19:17:33;9.10;99.90
3566;DHT22;1797;51.844;7.684;2023-02-21T19:19:59;9.10;99.90
3566;DHT22;1797;51.844;7.684;2023-02-21T19:22:25;9.10;99.90
3566;DHT22;1797;51.844;7.684;2023-02-21T19:24:51;9.10;99.90
3566;DHT22;1797;51.844;7.684;2023-02-21T19:27:16;9.10;99.90
3566;DHT22;1797;51.844;7.684;2023-02-21T19:29:42;9.10;99.90
3566;DHT22;1797;51.844;7.684;2023-02-21T19:32:08;9.10;99.90
3566;DHT22;1797;51.844;7.684;2023-02-21T19:34:34;9.10;99.90
3566;DHT22;1797;51.844;7.684;2023-02-21T19:37:00;9.10;99.90
3566;DHT22;1797;51.844;7.684;2023-02-21T19:39:26;9.10;99.90
3566;DHT22;1797;51.844;7.684;2023-02-21T19:41:52;9.00;99.90
3566;DHT22;1797;51.844;7.684;2023-02-21T19:44:18;9.00;99.90